Time;durP1;ratioP1;P1;durP2;ratioP2;P2;SDS_P1;SDS_P2;PMS_P1;PMS_P2;Temp;Humidity;BMP_temperature;BMP_pressure;BME280_temperature;BME280_humidity;BME280_pressure;Samples;Min_cycle;Max_cycle;Signal;HPM_P1;HPM_P2
2022/02/05 00:00:15;;;;;;;5.72;2.80;;;;;;;7.24;60.62;101508.56;4985824;28;123398;-77
2022/02/05 00:02:45;;;;;;;6.32;2.72;;;;;;;7.24;60.04;101498.03;4988049;28;123933;-77
2022/02/05 00:05:15;;;;;;;5.60;3.20;;;;;;;7.22;60.40;101501.56;4970379;28;119562;-77
2022/02/05 00:07:51;;;;;;;5.53;3.00;;;;;;;7.24;60.35;101508.56;4970070;28;118980;-76
2022/02/05 00:11:03;;;;;;;;;;;;;;;7.21;60.42;101498.94;4986321;28;125162;-77
2022/02/05 00:13:41;;;;;;;7.60;2.30;;;;;;;7.22;60.30;101506.81;4986529;28;124205;-77
2022/02/05 00:43:09;;;;;;;5.63;1.65;;;;;;;7.40;60.60;101541.59;4987722;28;123614;-75
2022/02/05 00:45:41;;;;;;;5.28;1.60;;;;;;;7.44;60.30;101547.66;4985741;28;122583;-76
2022/02/05 00:48:09;;;;;;;4.30;1.50;;;;;;;7.44;60.43;101545.94;4986017;28;118773;-76
2022/02/05 00:50:40;;;;;;;3.65;1.33;;;;;;;7.47;60.43;101547.63;4985328;28;118176;-76
2022/02/05 00:53:14;;;;;;;5.00;1.50;;;;;;;7.49;60.20;101551.94;4985328;28;122378;-74
2022/02/05 00:55:51;;;;;;;6.30;1.38;;;;;;;7.49;60.37;101546.69;5000642;28;124124;-76
2022/02/05 00:58:18;;;;;;;7.32;1.55;;;;;;;7.51;59.99;101550.16;4985515;28;118148;-75
2022/02/05 01:00:45;;;;;;;4.63;1.52;;;;;;;7.50;60.31;101548.44;4985447;28;117865;-75
2022/02/05 01:03:13;;;;;;;7.05;2.03;;;;;;;7.50;59.93;101548.44;4985117;28;123324;-75
2022/02/05 01:05:42;;;;;;;7.03;2.17;;;;;;;7.49;60.02;101557.22;4969060;28;123476;-74
2022/02/05 01:08:10;;;;;;;3.88;1.70;;;;;;;7.46;60.10;101562.56;4987098;28;119858;-75
2022/02/05 01:10:37;;;;;;;6.80;2.08;;;;;;;7.45;59.74;101566.09;4985210;28;118786;-75
2022/02/05 01:13:08;;;;;;;4.53;2.15;;;;;;;7.42;59.80;101560.88;4987219;28;124210;-75
2022/02/05 01:18:36;;;;;;;4.55;1.95;;;;;;;7.34;59.69;101574.22;4986579;28;118974;-76
2022/02/05 01:23:52;;;;;;;4.75;2.35;;;;;;;7.27;60.07;101579.63;4988180;28;124159;-76
2022/02/05 01:26:36;;;;;;;8.25;2.42;;;;;;;7.22;60.06;101591.13;4986042;28;125319;-75
2022/02/05 01:29:26;;;;;;;8.00;2.85;;;;;;;7.20;60.08;101598.19;4985172;28;122464;-76
2022/02/05 01:31:57;;;;;;;5.70;2.75;;;;;;;7.18;60.17;101594.72;4968895;28;121291;-76
2022/02/05 01:34:42;;;;;;;6.35;3.00;;;;;;;7.16;60.12;101607.06;4969512;28;123960;-76
2022/02/05 01:58:40;;;;;;;4.32;2.55;;;;;;;7.14;60.28;101613.22;4986519;28;122916;-76
2022/02/05 02:11:56;;;;;;;10.50;2.80;;;;;;;7.10;60.35;101627.38;4987664;28;119630;-76
2022/02/05 02:28:01;;;;;;;5.32;2.67;;;;;;;7.09;60.48;101652.84;4987550;28;122964;-77
2022/02/05 02:30:33;;;;;;;8.63;3.25;;;;;;;7.10;60.28;101649.31;4986959;28;124207;-77
2022/02/05 02:33:10;;;;;;;5.18;2.75;;;;;;;7.10;60.35;101661.59;4989033;28;118933;-77
2022/02/05 02:35:43;;;;;;;8.93;2.90;;;;;;;7.10;60.35;101667.78;4985372;28;118445;-77
2022/02/05 02:38:14;;;;;;;7.72;2.53;;;;;;;7.11;60.15;101666.84;4986253;28;124335;-77
2022/02/05 02:40:47;;;;;;;5.47;2.60;;;;;;;7.13;60.18;101670.31;4988408;28;123561;-77
2022/02/05 02:43:21;;;;;;;8.20;2.70;;;;;;;7.14;60.30;101677.34;4970999;28;118567;-77
2022/02/05 02:45:48;;;;;;;8.45;2.72;;;;;;;7.15;60.09;101678.22;4987844;28;119519;-77
2022/02/05 02:48:15;;;;;;;8.27;2.80;;;;;;;7.16;60.15;101680.81;4987467;28;124144;-77
2022/02/05 02:56:31;;;;;;;9.48;2.78;;;;;;;7.21;60.20;101689.53;4988856;28;119113;-77
2022/02/05 02:59:05;;;;;;;9.82;2.50;;;;;;;7.22;60.18;101685.97;4987935;28;124479;-77
2022/02/05 03:01:36;;;;;;;6.23;2.33;;;;;;;7.25;60.23;101692.94;4986378;28;123687;-77
2022/02/05 03:04:03;;;;;;;5.53;2.20;;;;;;;7.27;60.11;101692.94;5004484;28;118866;-77
2022/02/05 03:06:30;;;;;;;9.52;2.70;;;;;;;7.28;60.22;101694.69;4971424;28;118106;-77
2022/02/05 03:08:57;;;;;;;10.52;2.78;;;;;;;7.29;60.26;101696.41;4970786;28;123251;-77
2022/02/05 03:11:24;;;;;;;9.63;3.08;;;;;;;7.30;60.18;101695.53;4986956;28;123989;-77
2022/02/05 03:13:51;;;;;;;7.45;2.55;;;;;;;7.30;60.18;101703.44;4987108;28;119586;-77
2022/02/05 03:16:23;;;;;;;8.20;2.75;;;;;;;7.31;60.10;101700.75;4987696;28;118974;-77
2022/02/05 03:21:24;;;;;;;8.73;2.28;;;;;;;7.27;59.76;101703.47;4986146;28;123369;-77
2022/02/05 03:23:51;;;;;;;9.68;2.70;;;;;;;7.24;59.86;101707.03;4988755;28;119975;-77
2022/02/05 03:26:18;;;;;;;8.40;2.78;;;;;;;7.24;59.99;101706.16;4987488;28;119101;-77
2022/02/05 03:28:45;;;;;;;5.82;2.50;;;;;;;7.21;60.01;101714.97;4987068;28;123589;-77
2022/02/05 03:31:12;;;;;;;7.40;2.67;;;;;;;7.19;60.01;101722.91;4987444;28;124110;-77
2022/02/05 03:33:40;;;;;;;8.77;2.45;;;;;;;7.18;59.78;101726.44;4987118;28;118612;-77
2022/02/05 03:36:07;;;;;;;8.32;2.53;;;;;;;7.17;60.13;101729.97;4987532;28;118817;-79
2022/02/05 03:38:35;;;;;;;4.07;2.70;;;;;;;7.14;59.76;101727.41;4986053;28;125005;-77
2022/02/05 03:41:03;;;;;;;8.55;2.53;;;;;;;7.13;59.95;101738.81;4987147;28;123808;-77
2022/02/05 03:43:30;;;;;;;7.70;2.42;;;;;;;7.12;59.82;101731.81;4987450;28;118530;-78
2022/02/05 03:45:57;;;;;;;13.15;2.80;;;;;;;7.11;59.86;101735.34;4986862;28;116683;-77
2022/02/05 03:48:25;;;;;;;8.15;2.97;;;;;;;7.10;59.99;101738.88;4986392;28;121770;-77
2022/02/05 03:50:52;;;;;;;9.18;2.90;;;;;;;7.06;59.93;101729.28;4987906;28;123695;-76
2022/02/05 03:53:19;;;;;;;9.35;2.65;;;;;;;7.05;59.85;101730.19;5003432;28;118271;-77
2022/02/05 03:55:46;;;;;;;8.20;2.85;;;;;;;7.04;60.01;101733.69;4987581;28;118647;-77
2022/02/05 03:58:14;;;;;;;5.13;2.63;;;;;;;7.01;59.92;101728.50;4986633;28;124025;-77
2022/02/05 04:00:41;;;;;;;5.70;2.67;;;;;;;7.01;59.71;101728.50;4986171;28;122884;-76
2022/02/05 04:03:09;;;;;;;6.97;3.00;;;;;;;7.00;59.67;101724.09;4987455;28;119739;-77
2022/02/05 04:05:36;;;;;;;10.93;3.30;;;;;;;6.97;60.00;101727.69;4986119;28;118910;-77
2022/02/05 04:08:07;;;;;;;6.75;2.90;;;;;;;6.95;59.61;101728.56;4988290;28;123745;-77
2022/02/05 04:10:43;;;;;;;6.82;3.17;;;;;;;6.92;59.94;101736.53;4986067;28;123475;-77
2022/02/05 04:18:51;;;;;;;6.40;3.38;;;;;;;6.79;59.85;101744.59;4986604;28;123273;-77
2022/02/05 04:21:19;;;;;;;9.65;3.05;;;;;;;6.77;59.96;101746.41;4986736;28;123299;-77
2022/02/05 04:23:47;;;;;;;7.47;3.25;;;;;;;6.75;60.23;101748.19;4986901;28;119575;-77
2022/02/05 04:26:15;;;;;;;9.95;3.20;;;;;;;6.74;60.07;101751.72;4988568;28;118062;-75
2022/02/05 04:28:43;;;;;;;8.98;3.00;;;;;;;6.72;59.97;101753.47;4987121;28;123555;-76
2022/02/05 04:31:10;;;;;;;7.18;3.40;;;;;;;6.71;60.20;101759.66;4986057;28;124341;-77
2022/02/05 04:33:38;;;;;;;9.43;3.40;;;;;;;6.70;59.98;101757.91;4986123;28;118511;-77
2022/02/05 04:36:06;;;;;;;6.78;3.25;;;;;;;6.69;59.99;101764.06;4986307;28;118820;-77
2022/02/05 04:38:35;;;;;;;6.00;3.40;;;;;;;6.67;60.28;101765.88;4987143;28;124289;-77
2022/02/05 04:41:05;;;;;;;9.50;3.38;;;;;;;6.66;60.22;101764.09;5002357;28;124500;-77
2022/02/05 04:52:06;;;;;;;7.63;3.33;;;;;;;6.59;59.96;101778.25;4985562;28;124452;-77
2022/02/05 05:12:31;;;;;;;7.10;3.50;;;;;;;6.65;60.18;101783.44;4985864;28;124136;-77
2022/02/05 05:20:29;;;;;;;6.70;2.97;;;;;;;6.63;60.09;101801.03;4983930;28;123870;-77
2022/02/05 05:22:56;;;;;;;7.60;2.97;;;;;;;6.63;60.17;101801.03;4986834;28;124580;-77
2022/02/05 05:25:23;;;;;;;6.20;3.28;;;;;;;6.62;60.47;101809.78;4985695;28;118871;-77
2022/02/05 05:27:50;;;;;;;7.03;3.08;;;;;;;6.61;60.13;101815.94;4968915;28;118247;-77
2022/02/05 05:30:18;;;;;;;9.18;3.22;;;;;;;6.61;60.54;101819.47;4985039;28;123762;-77
2022/02/05 05:32:45;;;;;;;6.05;3.30;;;;;;;6.60;60.69;101811.59;4985522;28;121611;-77
2022/02/05 05:35:12;;;;;;;8.90;3.05;;;;;;;6.59;60.23;101815.97;4987116;28;119638;-77
2022/02/05 05:37:39;;;;;;;5.82;2.83;;;;;;;6.59;60.57;101809.81;4985648;28;117866;-77
2022/02/05 05:40:08;;;;;;;7.20;3.03;;;;;;;6.58;60.34;101808.97;4984929;28;123302;-77
2022/02/05 05:42:40;;;;;;;10.65;3.17;;;;;;;6.57;60.67;101817.75;4985535;28;124286;-76
2022/02/05 05:45:27;;;;;;;11.02;3.33;;;;;;;6.57;60.34;101822.13;4986060;28;119982;-77
2022/02/05 05:48:09;;;;;;;8.75;3.03;;;;;;;6.56;60.21;101820.41;5001457;28;118923;-77
2022/02/05 05:53:12;;;;;;;7.47;3.08;;;;;;;6.54;60.25;101827.47;4984906;28;124401;-77
2022/02/05 05:55:47;;;;;;;9.60;3.10;;;;;;;6.55;60.49;101834.44;4985477;28;118244;-77
2022/02/05 05:58:15;;;;;;;11.70;3.17;;;;;;;6.55;60.58;101840.56;4968797;28;118724;-76
2022/02/05 06:00:44;;;;;;;5.82;2.97;;;;;;;6.57;60.48;101843.19;4987755;28;123539;-77
2022/02/05 06:03:11;;;;;;;12.98;3.08;;;;;;;6.59;60.34;101849.31;4990207;28;123718;-77
2022/02/05 06:05:38;;;;;;;13.73;3.25;;;;;;;6.61;60.54;101850.16;4988216;28;118114;-76
2022/02/05 06:08:10;;;;;;;8.18;3.20;;;;;;;6.62;60.53;101846.66;4988761;28;119234;-77
2022/02/05 06:10:37;;;;;;;11.02;3.25;;;;;;;6.65;60.61;101851.88;4971147;28;125721;-76
2022/02/05 06:13:05;;;;;;;8.50;3.13;;;;;;;6.69;60.22;101853.59;4990255;28;123918;-77
2022/02/05 06:15:34;;;;;;;9.25;3.20;;;;;;;6.71;60.34;101851.81;5005162;28;120132;-77
2022/02/05 06:18:02;;;;;;;9.95;3.40;;;;;;;6.72;60.35;101853.53;4988572;28;119577;-77
2022/02/05 06:20:29;;;;;;;6.00;3.05;;;;;;;6.75;60.41;101858.75;4971094;28;123018;-77
2022/02/05 06:22:56;;;;;;;10.45;2.80;;;;;;;6.78;60.70;101863.09;4971384;28;121851;-77
2022/02/05 06:25:23;;;;;;;6.70;3.00;;;;;;;6.79;60.42;101865.72;4988707;28;119337;-77
2022/02/05 06:27:50;;;;;;;11.00;3.03;;;;;;;6.82;60.34;101864.84;4988659;28;118851;-76
2022/02/05 06:30:22;;;;;;;8.20;2.63;;;;;;;6.84;60.25;101876.22;5004615;28;123202;-76
2022/02/05 06:32:49;;;;;;;5.57;3.13;;;;;;;6.87;60.50;101877.94;4987885;28;124163;-77
2022/02/05 06:35:16;;;;;;;8.43;2.78;;;;;;;6.86;60.26;101876.19;4987541;28;121049;-77
2022/02/05 06:37:43;;;;;;;9.05;2.80;;;;;;;6.87;60.37;101872.66;4987715;28;119110;-77
2022/02/05 06:40:11;;;;;;;7.50;2.90;;;;;;;6.87;60.54;101872.66;4987754;28;123001;-77
2022/02/05 06:42:38;;;;;;;9.25;2.83;;;;;;;6.86;60.59;101865.66;4989223;28;124226;-76
2022/02/05 06:45:05;;;;;;;6.57;2.83;;;;;;;6.85;60.04;101875.31;4988328;28;119792;-77
2022/02/05 06:47:33;;;;;;;10.25;2.97;;;;;;;6.81;60.33;101866.56;5004646;28;118503;-77
2022/02/05 06:50:00;;;;;;;9.52;3.10;;;;;;;6.79;60.14;101871.00;4988299;28;123395;-77
2022/02/05 06:52:28;;;;;;;7.10;2.83;;;;;;;6.77;60.32;101878.03;4990502;28;123795;-77
2022/02/05 06:54:55;;;;;;;7.13;2.85;;;;;;;6.74;60.23;101875.47;4989694;28;119604;-77
2022/02/05 06:57:22;;;;;;;8.60;2.63;;;;;;;6.72;60.27;101874.59;4987542;28;117797;-77
2022/02/05 06:59:49;;;;;;;7.50;3.22;;;;;;;6.70;60.19;101865.84;4987397;28;123886;-77
2022/02/05 07:02:16;;;;;;;9.02;2.80;;;;;;;6.67;60.24;101876.44;4988460;28;123711;-77
2022/02/05 07:04:45;;;;;;;9.45;3.00;;;;;;;6.67;59.94;101875.53;4970976;28;118167;-76
2022/02/05 07:07:12;;;;;;;7.90;3.40;;;;;;;6.63;60.08;101880.00;4986721;28;118671;-77
2022/02/05 07:09:39;;;;;;;8.63;3.10;;;;;;;6.60;59.91;101887.91;4985806;28;122462;-77
2022/02/05 07:12:09;;;;;;;12.10;3.40;;;;;;;6.57;60.27;101895.84;4969793;28;123478;-77
2022/02/05 07:14:44;;;;;;;8.05;3.15;;;;;;;6.56;60.17;101894.09;4988754;28;119518;-77
2022/02/05 07:17:22;;;;;;;10.73;3.10;;;;;;;6.54;60.35;101904.66;4987228;28;119124;-77
2022/02/05 07:20:02;;;;;;;9.27;3.35;;;;;;;6.53;60.27;101904.66;4970726;28;123090;-77
2022/02/05 07:22:35;;;;;;;13.15;3.50;;;;;;;6.52;60.32;101909.06;4987252;28;125442;-77
2022/02/05 07:30:24;;;;;;;;;;;;;;;6.50;60.32;101913.47;5004268;28;123304;-77
2022/02/05 07:32:55;;;;;;;10.02;3.10;;;;;;;6.51;60.31;101917.81;4987306;28;122865;-76
2022/02/05 07:35:22;;;;;;;6.30;2.85;;;;;;;6.51;60.53;101927.50;4970904;28;118125;-77
2022/02/05 07:37:53;;;;;;;7.63;3.20;;;;;;;6.52;60.70;101921.34;4987333;28;119469;-76
2022/02/05 07:40:20;;;;;;;6.85;3.10;;;;;;;6.51;60.65;101933.63;4987140;28;123815;-77
2022/02/05 07:42:47;;;;;;;9.15;3.17;;;;;;;6.53;60.84;101925.72;4988931;28;123969;-77
2022/02/05 07:45:15;;;;;;;8.23;2.88;;;;;;;6.54;60.31;101932.72;4987524;28;118271;-77
2022/02/05 07:47:42;;;;;;;10.38;3.30;;;;;;;6.55;60.44;101934.47;4988511;28;118872;-77
2022/02/05 07:50:10;;;;;;;11.35;3.10;;;;;;;6.57;60.55;101943.22;4986279;28;124054;-77
2022/02/05 07:52:37;;;;;;;7.50;2.85;;;;;;;6.59;60.87;101941.44;4988171;28;124561;-77
2022/02/05 07:55:05;;;;;;;7.00;3.00;;;;;;;6.61;60.40;101944.91;4987206;28;118838;-77
2022/02/05 07:57:31;;;;;;;11.90;3.28;;;;;;;6.61;60.86;101950.19;4986920;28;118370;-76
2022/02/05 07:59:59;;;;;;;10.25;3.25;;;;;;;6.63;60.75;101953.69;4970060;28;123467;-77
2022/02/05 08:02:26;;;;;;;9.50;3.47;;;;;;;6.65;60.39;101951.91;4986314;28;123934;-76
2022/02/05 08:04:53;;;;;;;7.80;3.13;;;;;;;6.64;60.59;101950.16;4986991;28;118438;-77
2022/02/05 08:07:20;;;;;;;11.00;3.20;;;;;;;6.66;60.68;101953.63;4987556;28;118434;-76
2022/02/05 08:12:16;;;;;;;7.40;3.28;;;;;;;6.70;60.76;101965.00;5003323;28;122263;-76
2022/02/05 08:14:47;;;;;;;9.63;2.90;;;;;;;6.71;60.76;101962.38;4986318;28;121380;-77
2022/02/05 08:19:45;;;;;;;9.77;3.10;;;;;;;6.74;60.51;101956.19;4988092;28;124588;-76
2022/02/05 08:22:18;;;;;;;9.85;3.22;;;;;;;6.76;60.55;101955.31;4986846;28;123494;-77
2022/02/05 08:24:46;;;;;;;9.45;3.35;;;;;;;6.78;60.93;101961.41;4987743;28;119420;-76
2022/02/05 08:27:14;;;;;;;10.18;3.50;;;;;;;6.80;60.66;101957.00;4986826;28;118162;-77
2022/02/05 08:29:54;;;;;;;10.02;4.00;;;;;;;6.82;60.73;101955.22;4985648;28;123547;-77
2022/02/05 08:32:25;;;;;;;11.68;3.42;;;;;;;6.86;60.66;101955.19;5001389;28;123576;-77
2022/02/05 08:34:52;;;;;;;9.43;3.00;;;;;;;6.89;60.70;101955.13;5002806;28;117831;-77
2022/02/05 08:37:20;;;;;;;6.78;3.28;;;;;;;6.92;60.88;101955.13;4987921;28;118363;-77
2022/02/05 08:39:47;;;;;;;8.05;3.35;;;;;;;6.96;60.93;101946.28;4986827;28;123947;-77
2022/02/05 08:42:15;;;;;;;11.63;3.20;;;;;;;6.98;60.64;101941.88;4986250;28;122731;-77
2022/02/05 08:44:42;;;;;;;10.57;3.33;;;;;;;7.00;60.87;101938.31;4986242;28;119385;-77
2022/02/05 08:47:09;;;;;;;9.18;3.28;;;;;;;7.05;61.07;101946.16;4971134;28;118180;-77
2022/02/05 08:49:37;;;;;;;10.55;3.20;;;;;;;7.07;61.00;101941.75;4985915;28;123968;-77
2022/02/05 08:52:08;;;;;;;9.43;3.60;;;;;;;7.10;60.64;101938.19;4985643;28;123662;-77
2022/02/05 08:54:37;;;;;;;8.65;2.88;;;;;;;7.14;60.87;101940.78;4986820;28;119076;-77
2022/02/05 08:57:07;;;;;;;7.82;2.88;;;;;;;7.18;60.80;101947.75;4986766;28;118192;-76
2022/02/05 08:59:58;;;;;;;6.53;3.33;;;;;;;7.21;60.87;101953.00;4985800;28;124330;-77
2022/02/05 09:02:37;;;;;;;9.57;3.08;;;;;;;7.28;60.95;101955.53;4985842;28;123671;-77
2022/02/05 09:07:35;;;;;;;7.82;2.90;;;;;;;7.38;60.74;101971.22;4985478;28;119575;-77
2022/02/05 09:10:53;;;;;;;8.80;3.00;;;;;;;7.43;61.09;101962.38;4985883;28;124148;-77
2022/02/05 09:13:25;;;;;;;8.60;3.22;;;;;;;7.48;60.80;101971.97;4980175;28;123860;-77
2022/02/05 09:15:52;;;;;;;10.45;2.78;;;;;;;7.52;61.13;101963.09;4987631;28;118917;-77
2022/02/05 09:18:19;;;;;;;8.02;2.70;;;;;;;7.57;61.04;101961.28;4969710;28;118038;-77
2022/02/05 09:20:46;;;;;;;8.05;2.83;;;;;;;7.63;61.13;101976.13;4987082;28;124123;-77
2022/02/05 09:23:13;;;;;;;6.95;2.70;;;;;;;7.67;60.86;101971.69;4986121;28;123064;-76
2022/02/05 09:25:42;;;;;;;13.30;3.30;;;;;;;7.73;60.90;101976.88;4985885;28;118997;-77
2022/02/05 09:28:09;;;;;;;8.98;2.50;;;;;;;7.81;61.01;101985.53;4987010;28;118974;-77
2022/02/05 09:33:28;;;;;;;10.38;2.90;;;;;;;7.91;60.96;101981.88;4957323;28;123943;-77
2022/02/05 09:35:55;;;;;;;8.05;2.78;;;;;;;7.97;60.83;101987.03;4990152;28;119450;-77
2022/02/05 09:38:22;;;;;;;9.65;2.63;;;;;;;8.04;61.04;101986.94;4991939;28;118793;-77
2022/02/05 09:40:50;;;;;;;7.35;2.28;;;;;;;8.10;60.75;101997.38;4993103;28;124766;-77
2022/02/05 09:43:23;;;;;;;7.38;2.63;;;;;;;8.15;60.76;101990.28;4993636;28;123463;-77
2022/02/05 09:45:50;;;;;;;7.03;2.70;;;;;;;8.21;60.62;101998.06;4991211;28;119029;-77
2022/02/05 09:48:19;;;;;;;6.03;2.55;;;;;;;8.27;60.98;102000.63;4992274;28;117103;-77
2022/02/05 09:50:47;;;;;;;5.85;2.42;;;;;;;8.33;60.71;102000.53;4991694;28;124067;-77
2022/02/05 09:53:16;;;;;;;8.05;2.63;;;;;;;8.41;60.30;101996.88;4991900;28;124219;-77
2022/02/05 09:55:45;;;;;;;13.48;3.25;;;;;;;8.47;60.74;101992.38;4992020;28;121160;-77
2022/02/05 09:58:13;;;;;;;6.60;2.67;;;;;;;8.56;60.84;101991.38;4992465;28;119222;-77
2022/02/05 10:00:56;;;;;;;7.78;2.67;;;;;;;8.62;60.65;101985.97;4975855;28;122355;-77
2022/02/05 10:03:25;;;;;;;8.60;2.47;;;;;;;8.68;60.13;101988.50;4991886;28;123564;-77
2022/02/05 10:06:21;;;;;;;6.60;2.30;;;;;;;8.71;60.58;101991.06;4975575;28;118236;-77
2022/02/05 10:09:02;;;;;;;11.48;2.58;;;;;;;8.76;60.23;101994.50;4991784;28;118405;-77
2022/02/05 10:11:29;;;;;;;5.70;2.50;;;;;;;8.84;60.26;101985.56;4991289;28;123684;-77
2022/02/05 10:14:12;;;;;;;7.28;2.60;;;;;;;8.88;59.98;102000.47;4991860;28;123243;-77
2022/02/05 10:16:39;;;;;;;5.88;2.17;;;;;;;8.95;60.38;101983.59;4975657;28;118928;-77
2022/02/05 10:19:06;;;;;;;7.95;2.30;;;;;;;9.01;60.33;101988.75;4992906;28;118132;-77
2022/02/05 10:21:34;;;;;;;9.10;2.20;;;;;;;9.08;60.23;101995.66;4991787;28;122845;-77
2022/02/05 10:24:05;;;;;;;12.10;2.55;;;;;;;9.18;60.27;102000.75;4991653;28;122703;-77
2022/02/05 10:26:43;;;;;;;8.38;2.45;;;;;;;9.24;60.36;101979.47;4992108;28;118453;-76
2022/02/05 10:29:14;;;;;;;6.57;2.35;;;;;;;9.31;59.68;101981.94;4991787;28;118355;-77
2022/02/05 10:31:54;;;;;;;6.75;2.83;;;;;;;9.37;60.15;101975.66;4991224;28;123274;-77
2022/02/05 10:34:22;;;;;;;7.28;2.35;;;;;;;9.45;59.66;101979.00;4992913;28;123961;-77
2022/02/05 10:37:16;;;;;;;8.82;2.50;;;;;;;9.50;59.68;101977.13;4991350;28;119243;-76
2022/02/05 10:45:16;;;;;;;6.75;2.10;;;;;;;9.66;59.71;101971.47;4990696;28;123984;-77
2022/02/05 10:47:57;;;;;;;6.88;2.17;;;;;;;9.71;59.24;101981.06;5005127;28;119951;-77
2022/02/05 10:50:27;;;;;;;4.57;1.88;;;;;;;9.77;59.21;101984.47;4988000;28;119260;-77
2022/02/05 10:53:04;;;;;;;6.32;1.88;;;;;;;9.81;59.41;101987.00;4971544;28;123539;-77
2022/02/05 10:58:22;;;;;;;9.80;2.53;;;;;;;9.86;58.82;101984.25;4988157;28;118343;-77
2022/02/05 11:06:04;;;;;;;9.93;2.30;;;;;;;9.95;58.58;101978.75;5004666;28;122854;-77
2022/02/05 11:08:31;;;;;;;6.30;1.92;;;;;;;9.97;58.65;101968.13;4987591;28;118871;-77
2022/02/05 11:16:48;;;;;;;8.20;2.55;;;;;;;10.01;58.58;101967.16;4986857;28;124362;-77
2022/02/05 11:19:16;;;;;;;7.28;2.03;;;;;;;10.06;58.62;101973.19;4987069;28;118824;-77
2022/02/05 11:21:49;;;;;;;7.60;2.22;;;;;;;10.12;58.32;101970.41;4971873;28;118301;-77
2022/02/05 11:24:21;;;;;;;10.18;2.58;;;;;;;10.17;58.46;101972.91;4987681;28;123808;-78
2022/02/05 11:26:51;;;;;;;6.72;2.30;;;;;;;10.22;58.04;101971.03;4988922;28;123562;-77
2022/02/05 11:29:30;;;;;;;10.40;2.50;;;;;;;10.26;58.21;101973.53;4987335;28;119029;-77
2022/02/05 11:32:20;;;;;;;11.75;1.88;;;;;;;10.32;58.07;101978.75;4987603;28;117760;-77
2022/02/05 11:35:01;;;;;;;5.32;1.80;;;;;;;10.39;58.05;101973.28;4988341;28;123893;-76
2022/02/05 11:37:28;;;;;;;5.82;2.00;;;;;;;10.44;57.79;101974.03;4984944;28;124209;-77
2022/02/05 11:39:55;;;;;;;6.78;2.22;;;;;;;10.47;57.78;101960.69;4986275;28;119200;-77
2022/02/05 11:42:36;;;;;;;8.07;2.08;;;;;;;10.50;57.45;101945.59;4987524;28;119765;-77
2022/02/05 11:45:25;;;;;;;8.95;2.28;;;;;;;10.53;57.47;101939.34;4987096;28;123184;-77
2022/02/05 11:47:52;;;;;;;9.50;1.85;;;;;;;10.56;57.45;101949.84;4984670;28;123570;-77
2022/02/05 11:50:22;;;;;;;4.82;1.90;;;;;;;10.58;57.27;101948.03;4988674;28;119388;-77
2022/02/05 11:52:49;;;;;;;8.68;2.00;;;;;;;10.61;57.20;101947.94;4988439;28;118825;-77
2022/02/05 11:55:32;;;;;;;5.00;2.20;;;;;;;10.63;57.12;101946.13;4970700;28;123103;-77
2022/02/05 11:58:02;;;;;;;9.30;2.35;;;;;;;10.65;57.00;101933.69;4986807;28;123012;-76
2022/02/05 12:00:52;;;;;;;6.05;2.30;;;;;;;10.66;56.67;101951.34;4987387;28;118947;-77
2022/02/05 12:03:27;;;;;;;6.55;2.25;;;;;;;10.66;56.56;101930.16;4988681;28;118448;-77
2022/02/05 12:06:00;;;;;;;7.70;2.00;;;;;;;10.65;56.32;101931.06;5004965;28;122985;-77
2022/02/05 12:08:33;;;;;;;4.75;1.80;;;;;;;10.62;56.26;101933.78;4987769;28;123375;-78
2022/02/05 12:11:03;;;;;;;10.23;2.47;;;;;;;10.63;56.23;101934.66;4986346;28;119831;-76
2022/02/05 12:13:39;;;;;;;7.72;2.22;;;;;;;10.63;56.19;101930.22;4987342;28;118966;-77
2022/02/05 12:16:08;;;;;;;6.75;2.42;;;;;;;10.65;56.24;101933.69;5003443;28;123092;-77
2022/02/05 12:18:55;;;;;;;8.57;2.38;;;;;;;10.67;56.51;101931.88;4988289;28;123773;-77
2022/02/05 12:21:28;;;;;;;3.53;1.90;;;;;;;10.75;56.21;101928.16;4988716;28;119330;-76
2022/02/05 12:24:22;;;;;;;6.70;2.40;;;;;;;10.79;56.31;101935.09;4988510;28;118709;-77
2022/02/05 12:26:45;;;;;;;6.80;1.85;;;;;;;10.86;56.47;101926.06;4988076;28;123894;-77
2022/02/05 12:29:28;;;;;;;4.22;2.00;;;;;;;10.91;56.33;101918.84;4985888;28;123156;-77
2022/02/05 12:31:56;;;;;;;8.55;2.70;;;;;;;10.97;55.65;101929.28;4969966;28;119518;-77
2022/02/05 12:34:32;;;;;;;7.88;2.60;;;;;;;11.00;55.87;101923.88;5003062;28;119258;-77
2022/02/05 12:37:00;;;;;;;7.65;2.72;;;;;;;11.06;55.94;101912.22;5002236;28;124618;-77
2022/02/05 12:39:32;;;;;;;6.30;2.70;;;;;;;11.12;56.05;101906.75;4969593;28;123006;-76
2022/02/05 12:42:08;;;;;;;9.55;2.60;;;;;;;11.23;55.75;101896.66;4984073;28;119212;-77
2022/02/05 12:44:37;;;;;;;7.63;2.00;;;;;;;11.32;56.13;101892.00;4986706;28;120195;-75
2022/02/05 12:47:16;;;;;;;6.57;2.30;;;;;;;11.42;55.74;101896.09;4986619;28;123382;-77
2022/02/05 12:49:56;;;;;;;8.85;2.30;;;;;;;11.50;55.66;101902.88;4988561;28;124999;-77
2022/02/05 12:52:31;;;;;;;7.07;1.90;;;;;;;11.59;55.39;101890.25;4985298;28;119466;-77
2022/02/05 12:55:00;;;;;;;5.72;1.98;;;;;;;11.67;55.38;101893.53;4984703;28;119612;-77
2022/02/05 12:57:29;;;;;;;7.05;2.10;;;;;;;11.76;54.99;101887.91;4987024;28;124634;-77
2022/02/05 13:00:07;;;;;;;8.23;2.03;;;;;;;11.82;54.74;101882.38;5002394;28;122860;-77
2022/02/05 13:02:35;;;;;;;6.90;1.85;;;;;;;11.90;54.68;101868.03;5002706;28;119237;-77
2022/02/05 13:05:02;;;;;;;5.00;1.90;;;;;;;11.95;54.25;101871.41;4986098;28;119276;-78
2022/02/05 13:07:32;;;;;;;6.25;1.90;;;;;;;11.98;54.21;101872.16;5002982;28;124000;-77
2022/02/05 13:10:07;;;;;;;8.55;2.00;;;;;;;12.03;54.01;101870.19;4968423;28;122898;-76
2022/02/05 13:12:43;;;;;;;5.35;1.75;;;;;;;12.07;53.79;101876.28;4986383;28;119039;-77
2022/02/05 13:15:22;;;;;;;4.88;1.65;;;;;;;12.10;53.67;101870.88;4986509;28;116993;-77
2022/02/05 13:26:07;;;;;;;5.18;1.48;;;;;;;12.11;53.36;101866.41;4985975;28;119322;-77
2022/02/05 13:29:04;;;;;;;8.52;1.88;;;;;;;12.10;53.18;101865.56;4984457;28;124098;-77
2022/02/05 13:34:30;;;;;;;8.38;1.92;;;;;;;12.04;53.00;101849.84;4985906;28;118856;-76
2022/02/05 13:37:06;;;;;;;6.00;1.80;;;;;;;12.05;53.01;101843.59;4986600;28;119028;-76
2022/02/05 13:45:01;;;;;;;6.53;1.50;;;;;;;12.02;52.23;101847.25;4985020;28;119354;-76
2022/02/05 13:47:51;;;;;;;8.60;1.55;;;;;;;11.96;52.45;101846.56;4985916;28;118112;-77
2022/02/05 13:50:23;;;;;;;5.30;1.58;;;;;;;11.90;51.79;101841.47;4985473;28;123794;-77
2022/02/05 13:52:58;;;;;;;7.40;1.52;;;;;;;11.85;52.06;101845.13;4969944;28;123248;-77
2022/02/05 13:55:31;;;;;;;7.10;1.50;;;;;;;11.81;51.60;101838.19;4984570;28;119054;-76
2022/02/05 13:58:06;;;;;;;6.72;1.52;;;;;;;11.76;51.93;101833.97;5001951;28;118053;-76
2022/02/05 14:00:51;;;;;;;4.28;1.50;;;;;;;11.69;51.78;101822.69;4984808;28;123957;-75
2022/02/05 14:03:41;;;;;;;3.22;1.15;;;;;;;11.67;51.89;101811.25;5002291;28;123273;-76
2022/02/05 14:06:14;;;;;;;5.78;1.58;;;;;;;11.69;52.03;101817.38;4985214;28;118257;-76
2022/02/05 14:08:44;;;;;;;4.00;1.20;;;;;;;11.69;52.07;101812.06;4984804;28;118043;-76
2022/02/05 14:11:14;;;;;;;5.72;1.60;;;;;;;11.74;52.17;101814.59;4984581;28;123000;-76
2022/02/05 14:13:43;;;;;;;4.40;1.30;;;;;;;11.78;52.34;101822.38;4984883;28;123995;-76
2022/02/05 14:16:11;;;;;;;3.53;1.55;;;;;;;11.81;51.98;101824.94;5001284;28;119536;-76
2022/02/05 14:18:54;;;;;;;6.40;1.52;;;;;;;11.81;51.69;101819.63;4985154;28;118806;-77
2022/02/05 14:21:42;;;;;;;5.68;1.42;;;;;;;11.79;51.91;101808.19;4985641;28;123303;-76
2022/02/05 14:24:25;;;;;;;4.85;1.42;;;;;;;11.78;51.79;101816.22;4987414;28;123719;-76
2022/02/05 14:29:24;;;;;;;7.13;1.50;;;;;;;11.76;51.65;101821.56;4989193;28;119102;-75
2022/02/05 14:31:55;;;;;;;5.43;1.20;;;;;;;11.78;51.73;101822.38;4971801;28;123257;-76
2022/02/05 14:34:36;;;;;;;4.97;1.40;;;;;;;11.81;52.03;101810.78;4988528;28;123531;-76
2022/02/05 14:42:21;;;;;;;6.05;1.65;;;;;;;11.88;51.82;101802.56;4989032;28;123959;-76
2022/02/05 14:44:49;;;;;;;7.93;1.90;;;;;;;11.93;51.57;101801.56;5004703;28;123033;-76
2022/02/05 14:47:17;;;;;;;4.88;1.70;;;;;;;11.96;51.62;101793.47;4988050;28;119388;-76